sensor_id;sensor_type;location;lat;lon;timestamp;temperature;humidity
72277;SHT30;61204;49.980;8.358;2022-10-31T00:01:31;9.85;99.99
72277;SHT30;61204;49.980;8.358;2022-10-31T00:03:59;9.82;99.99
72277;SHT30;61204;49.980;8.358;2022-10-31T00:06:25;9.79;99.99
72277;SHT30;61204;49.980;8.358;2022-10-31T00:09:01;9.79;99.99
72277;SHT30;61204;49.980;8.358;2022-10-31T00:11:29;9.79;99.99
72277;SHT30;61204;49.980;8.358;2022-10-31T00:13:57;9.77;99.99
72277;SHT30;61204;49.980;8.358;2022-10-31T00:16:25;9.76;99.99
72277;SHT30;61204;49.980;8.358;2022-10-31T00:18:55;9.79;99.99
72277;SHT30;61204;49.980;8.358;2022-10-31T00:21:24;9.77;99.99
72277;SHT30;61204;49.980;8.358;2022-10-31T00:23:50;9.80;99.99
72277;SHT30;61204;49.980;8.358;2022-10-31T00:26:16;9.83;99.99
72277;SHT30;61204;49.980;8.358;2022-10-31T00:28:43;9.87;99.99
72277;SHT30;61204;49.980;8.358;2022-10-31T00:31:10;9.94;99.99
72277;SHT30;61204;49.980;8.358;2022-10-31T00:33:39;10.00;99.99
72277;SHT30;61204;49.980;8.358;2022-10-31T00:36:07;10.03;99.99
72277;SHT30;61204;49.980;8.358;2022-10-31T00:38:35;10.03;99.99
72277;SHT30;61204;49.980;8.358;2022-10-31T00:41:01;10.01;99.99
72277;SHT30;61204;49.980;8.358;2022-10-31T00:43:27;10.04;99.99
72277;SHT30;61204;49.980;8.358;2022-10-31T00:45:52;10.04;99.99
72277;SHT30;61204;49.980;8.358;2022-10-31T00:48:18;10.05;99.99
72277;SHT30;61204;49.980;8.358;2022-10-31T00:50:43;10.08;99.99
72277;SHT30;61204;49.980;8.358;2022-10-31T00:53:09;10.05;99.99
72277;SHT30;61204;49.980;8.358;2022-10-31T00:55:34;10.01;99.99
72277;SHT30;61204;49.980;8.358;2022-10-31T00:58:00;10.00;99.99
72277;SHT30;61204;49.980;8.358;2022-10-31T01:00:26;10.01;99.99
72277;SHT30;61204;49.980;8.358;2022-10-31T01:02:52;10.00;99.99
72277;SHT30;61204;49.980;8.358;2022-10-31T01:05:18;10.05;99.99
72277;SHT30;61204;49.980;8.358;2022-10-31T01:07:44;10.01;99.99
72277;SHT30;61204;49.980;8.358;2022-10-31T01:10:10;9.98;99.99
72277;SHT30;61204;49.980;8.358;2022-10-31T01:12:43;10.00;99.99
72277;SHT30;61204;49.980;8.358;2022-10-31T01:15:13;9.98;99.99
72277;SHT30;61204;49.980;8.358;2022-10-31T01:17:41;9.96;99.99
72277;SHT30;61204;49.980;8.358;2022-10-31T01:20:09;10.10;99.99
72277;SHT30;61204;49.980;8.358;2022-10-31T01:22:36;10.22;99.99
72277;SHT30;61204;49.980;8.358;2022-10-31T01:25:02;10.30;99.99
72277;SHT30;61204;49.980;8.358;2022-10-31T01:27:28;10.27;99.99
72277;SHT30;61204;49.980;8.358;2022-10-31T01:29:54;10.21;99.99
72277;SHT30;61204;49.980;8.358;2022-10-31T01:32:19;10.14;99.99
72277;SHT30;61204;49.980;8.358;2022-10-31T01:34:45;10.05;99.99
72277;SHT30;61204;49.980;8.358;2022-10-31T01:37:10;10.00;99.99
72277;SHT30;61204;49.980;8.358;2022-10-31T01:39:36;9.96;99.99
72277;SHT30;61204;49.980;8.358;2022-10-31T01:42:02;9.91;99.99
72277;SHT30;61204;49.980;8.358;2022-10-31T01:47:08;9.82;99.99
72277;SHT30;61204;49.980;8.358;2022-10-31T01:49:55;9.83;99.99
72277;SHT30;61204;49.980;8.358;2022-10-31T01:52:34;9.77;99.99
72277;SHT30;61204;49.980;8.358;2022-10-31T01:55:21;9.79;99.99
72277;SHT30;61204;49.980;8.358;2022-10-31T01:57:52;9.85;99.99
72277;SHT30;61204;49.980;8.358;2022-10-31T02:00:21;9.89;99.99
72277;SHT30;61204;49.980;8.358;2022-10-31T02:02:49;10.00;99.99
72277;SHT30;61204;49.980;8.358;2022-10-31T02:05:21;9.93;99.99
72277;SHT30;61204;49.980;8.358;2022-10-31T02:08:00;9.90;99.99
72277;SHT30;61204;49.980;8.358;2022-10-31T02:10:36;9.89;99.99
72277;SHT30;61204;49.980;8.358;2022-10-31T02:13:06;9.85;99.99
72277;SHT30;61204;49.980;8.358;2022-10-31T02:15:33;9.80;99.99
72277;SHT30;61204;49.980;8.358;2022-10-31T02:18:02;9.80;99.99
72277;SHT30;61204;49.980;8.358;2022-10-31T02:20:41;9.76;99.99
72277;SHT30;61204;49.980;8.358;2022-10-31T02:23:43;9.77;99.99
72277;SHT30;61204;49.980;8.358;2022-10-31T02:26:51;9.80;99.99
72277;SHT30;61204;49.980;8.358;2022-10-31T02:32:27;9.76;99.99
72277;SHT30;61204;49.980;8.358;2022-10-31T02:38:42;9.76;99.99
72277;SHT30;61204;49.980;8.358;2022-10-31T02:41:32;9.72;99.99
72277;SHT30;61204;49.980;8.358;2022-10-31T02:47:12;9.79;99.99
72277;SHT30;61204;49.980;8.358;2022-10-31T02:50:03;9.89;99.99
72277;SHT30;61204;49.980;8.358;2022-10-31T02:52:35;9.90;99.99
72277;SHT30;61204;49.980;8.358;2022-10-31T02:58:18;9.87;99.99
72277;SHT30;61204;49.980;8.358;2022-10-31T03:07:11;9.70;99.99
72277;SHT30;61204;49.980;8.358;2022-10-31T03:15:37;9.52;99.99
72277;SHT30;61204;49.980;8.358;2022-10-31T03:18:32;9.52;99.99
72277;SHT30;61204;49.980;8.358;2022-10-31T03:21:14;9.46;99.99
72277;SHT30;61204;49.980;8.358;2022-10-31T03:23:47;9.45;99.99
72277;SHT30;61204;49.980;8.358;2022-10-31T03:26:16;9.43;99.99
72277;SHT30;61204;49.980;8.358;2022-10-31T03:28:55;9.41;99.99
72277;SHT30;61204;49.980;8.358;2022-10-31T03:31:31;9.39;99.99
72277;SHT30;61204;49.980;8.358;2022-10-31T03:34:07;9.39;99.99
72277;SHT30;61204;49.980;8.358;2022-10-31T03:36:38;9.42;99.99
72277;SHT30;61204;49.980;8.358;2022-10-31T03:39:08;9.41;99.99
72277;SHT30;61204;49.980;8.358;2022-10-31T03:41:45;9.43;99.99
72277;SHT30;61204;49.980;8.358;2022-10-31T03:44:22;9.38;99.99
72277;SHT30;61204;49.980;8.358;2022-10-31T03:46:49;9.39;99.99
72277;SHT30;61204;49.980;8.358;2022-10-31T03:49:16;9.36;99.99
72277;SHT30;61204;49.980;8.358;2022-10-31T03:52:13;9.38;99.99
72277;SHT30;61204;49.980;8.358;2022-10-31T03:55:02;9.31;99.99
72277;SHT30;61204;49.980;8.358;2022-10-31T03:57:37;9.30;99.99
72277;SHT30;61204;49.980;8.358;2022-10-31T04:00:09;9.22;99.99
72277;SHT30;61204;49.980;8.358;2022-10-31T04:02:46;9.31;99.99
72277;SHT30;61204;49.980;8.358;2022-10-31T04:05:20;9.31;99.99
72277;SHT30;61204;49.980;8.358;2022-10-31T04:07:51;9.31;99.99
72277;SHT30;61204;49.980;8.358;2022-10-31T04:10:22;9.28;99.99
72277;SHT30;61204;49.980;8.358;2022-10-31T04:13:22;9.21;99.99
72277;SHT30;61204;49.980;8.358;2022-10-31T04:15:54;9.15;99.99
72277;SHT30;61204;49.980;8.358;2022-10-31T04:18:23;9.08;99.99
72277;SHT30;61204;49.980;8.358;2022-10-31T04:20:49;9.05;99.99
72277;SHT30;61204;49.980;8.358;2022-10-31T04:23:35;9.04;99.99
72277;SHT30;61204;49.980;8.358;2022-10-31T04:26:02;9.07;99.99
72277;SHT30;61204;49.980;8.358;2022-10-31T04:28:28;9.13;99.99
72277;SHT30;61204;49.980;8.358;2022-10-31T04:30:54;9.14;99.99
72277;SHT30;61204;49.980;8.358;2022-10-31T04:33:20;9.22;99.99
72277;SHT30;61204;49.980;8.358;2022-10-31T04:35:46;9.21;99.99
72277;SHT30;61204;49.980;8.358;2022-10-31T04:38:12;9.20;99.99
72277;SHT30;61204;49.980;8.358;2022-10-31T04:40:38;9.18;99.99
72277;SHT30;61204;49.980;8.358;2022-10-31T04:43:03;9.17;99.99
72277;SHT30;61204;49.980;8.358;2022-10-31T04:45:29;9.17;99.99
72277;SHT30;61204;49.980;8.358;2022-10-31T04:47:54;9.17;99.99
72277;SHT30;61204;49.980;8.358;2022-10-31T04:50:20;9.17;99.99
72277;SHT30;61204;49.980;8.358;2022-10-31T04:52:46;9.18;99.99
72277;SHT30;61204;49.980;8.358;2022-10-31T04:55:13;9.22;99.99
72277;SHT30;61204;49.980;8.358;2022-10-31T04:57:44;9.25;99.99
72277;SHT30;61204;49.980;8.358;2022-10-31T05:00:14;9.30;99.99
72277;SHT30;61204;49.980;8.358;2022-10-31T05:02:52;9.34;99.99
72277;SHT30;61204;49.980;8.358;2022-10-31T05:05:26;9.45;99.99
72277;SHT30;61204;49.980;8.358;2022-10-31T05:07:55;9.43;99.99
72277;SHT30;61204;49.980;8.358;2022-10-31T05:10:26;9.39;99.99
72277;SHT30;61204;49.980;8.358;2022-10-31T05:13:00;9.42;99.99
72277;SHT30;61204;49.980;8.358;2022-10-31T05:15:27;9.43;99.99
72277;SHT30;61204;49.980;8.358;2022-10-31T05:17:55;9.45;99.99
72277;SHT30;61204;49.980;8.358;2022-10-31T05:20:24;9.43;99.99
72277;SHT30;61204;49.980;8.358;2022-10-31T05:22:55;9.42;99.99
72277;SHT30;61204;49.980;8.358;2022-10-31T05:25:25;9.42;99.99
72277;SHT30;61204;49.980;8.358;2022-10-31T05:27:53;9.41;99.99
72277;SHT30;61204;49.980;8.358;2022-10-31T05:30:24;9.38;99.99
72277;SHT30;61204;49.980;8.358;2022-10-31T05:32:56;9.35;99.99
72277;SHT30;61204;49.980;8.358;2022-10-31T05:35:30;9.35;99.99
72277;SHT30;61204;49.980;8.358;2022-10-31T05:37:57;9.30;99.99
72277;SHT30;61204;49.980;8.358;2022-10-31T05:40:25;9.31;99.99
72277;SHT30;61204;49.980;8.358;2022-10-31T05:42:55;9.30;99.99
72277;SHT30;61204;49.980;8.358;2022-10-31T05:45:24;9.31;99.99
72277;SHT30;61204;49.980;8.358;2022-10-31T05:47:54;9.32;99.99
72277;SHT30;61204;49.980;8.358;2022-10-31T05:50:22;9.27;99.99
72277;SHT30;61204;49.980;8.358;2022-10-31T05:53:01;9.25;99.99
72277;SHT30;61204;49.980;8.358;2022-10-31T05:55:30;9.27;99.99
72277;SHT30;61204;49.980;8.358;2022-10-31T05:57:56;9.28;99.99
72277;SHT30;61204;49.980;8.358;2022-10-31T06:00:24;9.30;99.99
72277;SHT30;61204;49.980;8.358;2022-10-31T06:02:59;9.34;99.99
72277;SHT30;61204;49.980;8.358;2022-10-31T06:05:26;9.36;99.99
72277;SHT30;61204;49.980;8.358;2022-10-31T06:07:52;9.38;99.99
72277;SHT30;61204;49.980;8.358;2022-10-31T06:10:17;9.35;99.99
72277;SHT30;61204;49.980;8.358;2022-10-31T06:12:44;9.30;99.99
72277;SHT30;61204;49.980;8.358;2022-10-31T06:15:10;9.32;99.99
72277;SHT30;61204;49.980;8.358;2022-10-31T06:17:36;9.27;99.99
72277;SHT30;61204;49.980;8.358;2022-10-31T06:20:02;9.31;99.99
72277;SHT30;61204;49.980;8.358;2022-10-31T06:22:29;9.35;99.99
72277;SHT30;61204;49.980;8.358;2022-10-31T06:24:55;9.39;99.99
72277;SHT30;61204;49.980;8.358;2022-10-31T06:27:20;9.45;99.99
72277;SHT30;61204;49.980;8.358;2022-10-31T06:29:47;9.50;99.99
72277;SHT30;61204;49.980;8.358;2022-10-31T06:32:14;9.58;99.99
72277;SHT30;61204;49.980;8.358;2022-10-31T06:34:40;9.72;99.99
72277;SHT30;61204;49.980;8.358;2022-10-31T06:37:09;9.83;99.99
72277;SHT30;61204;49.980;8.358;2022-10-31T06:39:36;9.91;99.99
72277;SHT30;61204;49.980;8.358;2022-10-31T06:42:03;10.00;99.99
72277;SHT30;61204;49.980;8.358;2022-10-31T06:44:30;10.11;99.99
72277;SHT30;61204;49.980;8.358;2022-10-31T06:46:56;10.21;99.99
72277;SHT30;61204;49.980;8.358;2022-10-31T06:49:21;10.32;99.99
72277;SHT30;61204;49.980;8.358;2022-10-31T06:51:48;10.63;99.99
72277;SHT30;61204;49.980;8.358;2022-10-31T06:54:16;11.03;99.99
72277;SHT30;61204;49.980;8.358;2022-10-31T06:56:42;11.45;99.99
72277;SHT30;61204;49.980;8.358;2022-10-31T06:59:07;11.69;99.99
72277;SHT30;61204;49.980;8.358;2022-10-31T07:01:33;12.00;99.99
72277;SHT30;61204;49.980;8.358;2022-10-31T07:03:59;12.21;99.99
72277;SHT30;61204;49.980;8.358;2022-10-31T07:06:24;12.17;99.99
72277;SHT30;61204;49.980;8.358;2022-10-31T07:08:50;12.11;99.99
72277;SHT30;61204;49.980;8.358;2022-10-31T07:11:15;12.10;99.99
72277;SHT30;61204;49.980;8.358;2022-10-31T07:13:41;12.05;99.99
72277;SHT30;61204;49.980;8.358;2022-10-31T07:16:08;12.13;99.99
72277;SHT30;61204;49.980;8.358;2022-10-31T07:18:37;12.27;99.99
72277;SHT30;61204;49.980;8.358;2022-10-31T07:21:03;12.50;99.99
72277;SHT30;61204;49.980;8.358;2022-10-31T07:23:29;12.63;99.66
72277;SHT30;61204;49.980;8.358;2022-10-31T07:25:56;12.79;98.82
72277;SHT30;61204;49.980;8.358;2022-10-31T07:28:23;12.89;97.63
72277;SHT30;61204;49.980;8.358;2022-10-31T07:30:55;13.17;96.67
72277;SHT30;61204;49.980;8.358;2022-10-31T07:33:23;13.42;95.03
72277;SHT30;61204;49.980;8.358;2022-10-31T07:35:53;13.80;93.94
72277;SHT30;61204;49.980;8.358;2022-10-31T07:38:19;14.21;92.31
72277;SHT30;61204;49.980;8.358;2022-10-31T07:40:50;14.59;90.26
72277;SHT30;61204;49.980;8.358;2022-10-31T07:43:18;14.91;87.70
72277;SHT30;61204;49.980;8.358;2022-10-31T07:45:52;15.11;88.09
72277;SHT30;61204;49.980;8.358;2022-10-31T07:48:19;15.45;87.26
72277;SHT30;61204;49.980;8.358;2022-10-31T07:50:44;15.66;85.99
72277;SHT30;61204;49.980;8.358;2022-10-31T07:53:13;15.74;85.43
72277;SHT30;61204;49.980;8.358;2022-10-31T07:55:39;15.87;85.46
72277;SHT30;61204;49.980;8.358;2022-10-31T07:58:11;15.73;82.70
72277;SHT30;61204;49.980;8.358;2022-10-31T08:00:41;15.72;86.05
72277;SHT30;61204;49.980;8.358;2022-10-31T08:03:11;16.00;84.28
72277;SHT30;61204;49.980;8.358;2022-10-31T08:05:42;16.24;84.61
72277;SHT30;61204;49.980;8.358;2022-10-31T08:08:12;16.49;82.43
72277;SHT30;61204;49.980;8.358;2022-10-31T08:10:39;16.47;81.61
72277;SHT30;61204;49.980;8.358;2022-10-31T08:13:11;16.52;82.25
72277;SHT30;61204;49.980;8.358;2022-10-31T08:15:39;16.75;81.59
72277;SHT30;61204;49.980;8.358;2022-10-31T08:18:12;16.62;81.24
72277;SHT30;61204;49.980;8.358;2022-10-31T08:20:40;16.35;79.92
72277;SHT30;61204;49.980;8.358;2022-10-31T08:23:08;15.99;81.92
72277;SHT30;61204;49.980;8.358;2022-10-31T08:25:35;15.67;82.47
72277;SHT30;61204;49.980;8.358;2022-10-31T08:28:01;15.27;83.09
72277;SHT30;61204;49.980;8.358;2022-10-31T08:30:32;15.30;83.88
72277;SHT30;61204;49.980;8.358;2022-10-31T08:33:03;15.32;82.88
72277;SHT30;61204;49.980;8.358;2022-10-31T08:35:41;15.49;83.18
72277;SHT30;61204;49.980;8.358;2022-10-31T08:38:10;15.87;83.65
72277;SHT30;61204;49.980;8.358;2022-10-31T08:40:38;16.32;81.29
72277;SHT30;61204;49.980;8.358;2022-10-31T08:43:13;16.45;80.82
72277;SHT30;61204;49.980;8.358;2022-10-31T08:45:43;16.55;78.85
72277;SHT30;61204;49.980;8.358;2022-10-31T08:48:15;16.22;79.98
72277;SHT30;61204;49.980;8.358;2022-10-31T08:50:44;16.00;80.41
72277;SHT30;61204;49.980;8.358;2022-10-31T08:53:19;16.01;80.67
72277;SHT30;61204;49.980;8.358;2022-10-31T08:55:46;15.83;80.95
72277;SHT30;61204;49.980;8.358;2022-10-31T08:58:15;15.94;80.61
72277;SHT30;61204;49.980;8.358;2022-10-31T09:00:45;16.08;79.04
72277;SHT30;61204;49.980;8.358;2022-10-31T09:03:20;16.25;79.28
72277;SHT30;61204;49.980;8.358;2022-10-31T09:05:47;16.22;78.05
72277;SHT30;61204;49.980;8.358;2022-10-31T09:08:13;16.16;78.75
72277;SHT30;61204;49.980;8.358;2022-10-31T09:10:40;16.32;77.47
72277;SHT30;61204;49.980;8.358;2022-10-31T09:13:13;16.03;79.01
72277;SHT30;61204;49.980;8.358;2022-10-31T09:15:43;16.16;77.80
72277;SHT30;61204;49.980;8.358;2022-10-31T09:18:12;16.08;78.10
72277;SHT30;61204;49.980;8.358;2022-10-31T09:20:42;16.41;78.89
72277;SHT30;61204;49.980;8.358;2022-10-31T09:23:14;16.58;76.67
72277;SHT30;61204;49.980;8.358;2022-10-31T09:25:42;16.55;76.13
72277;SHT30;61204;49.980;8.358;2022-10-31T09:28:12;16.54;76.16
72277;SHT30;61204;49.980;8.358;2022-10-31T09:30:39;16.76;75.20
72277;SHT30;61204;49.980;8.358;2022-10-31T09:33:12;16.84;75.23
72277;SHT30;61204;49.980;8.358;2022-10-31T09:35:40;17.07;74.87
72277;SHT30;61204;49.980;8.358;2022-10-31T09:38:12;17.18;74.28
72277;SHT30;61204;49.980;8.358;2022-10-31T09:40:46;17.44;74.02
72277;SHT30;61204;49.980;8.358;2022-10-31T09:47:00;17.76;72.21
72277;SHT30;61204;49.980;8.358;2022-10-31T09:52:29;17.69;73.03
72277;SHT30;61204;49.980;8.358;2022-10-31T09:57:36;18.08;70.77
72277;SHT30;61204;49.980;8.358;2022-10-31T10:00:11;18.13;71.28
72277;SHT30;61204;49.980;8.358;2022-10-31T10:02:58;18.28;70.12
72277;SHT30;61204;49.980;8.358;2022-10-31T10:06:04;18.14;71.03
72277;SHT30;61204;49.980;8.358;2022-10-31T10:08:44;18.31;69.88
72277;SHT30;61204;49.980;8.358;2022-10-31T10:17:44;18.44;70.53
72277;SHT30;61204;49.980;8.358;2022-10-31T10:26:37;18.35;71.30
72277;SHT30;61204;49.980;8.358;2022-10-31T10:29:38;18.66;71.02
72277;SHT30;61204;49.980;8.358;2022-10-31T10:32:19;19.07;69.94
72277;SHT30;61204;49.980;8.358;2022-10-31T10:35:02;19.02;70.09
72277;SHT30;61204;49.980;8.358;2022-10-31T10:37:42;18.62;70.48
72277;SHT30;61204;49.980;8.358;2022-10-31T10:40:20;18.41;71.37
72277;SHT30;61204;49.980;8.358;2022-10-31T10:58:11;19.30;69.63
72277;SHT30;61204;49.980;8.358;2022-10-31T11:00:43;19.78;68.32
72277;SHT30;61204;49.980;8.358;2022-10-31T11:03:13;20.03;67.38
72277;SHT30;61204;49.980;8.358;2022-10-31T11:05:55;20.33;66.88
72277;SHT30;61204;49.980;8.358;2022-10-31T11:08:33;21.02;65.45
72277;SHT30;61204;49.980;8.358;2022-10-31T11:11:04;20.80;65.22
72277;SHT30;61204;49.980;8.358;2022-10-31T11:13:48;20.56;64.62
72277;SHT30;61204;49.980;8.358;2022-10-31T11:16:33;19.93;67.12
72277;SHT30;61204;49.980;8.358;2022-10-31T11:19:16;19.06;69.31
72277;SHT30;61204;49.980;8.358;2022-10-31T11:21:46;19.32;68.51
72277;SHT30;61204;49.980;8.358;2022-10-31T11:24:17;19.85;68.42
72277;SHT30;61204;49.980;8.358;2022-10-31T11:26:47;20.09;65.34
72277;SHT30;61204;49.980;8.358;2022-10-31T11:29:24;20.49;65.13
72277;SHT30;61204;49.980;8.358;2022-10-31T11:31:54;20.40;66.33
72277;SHT30;61204;49.980;8.358;2022-10-31T11:34:35;20.87;64.08
72277;SHT30;61204;49.980;8.358;2022-10-31T11:37:17;20.20;65.55
72277;SHT30;61204;49.980;8.358;2022-10-31T11:39:54;20.13;65.74
72277;SHT30;61204;49.980;8.358;2022-10-31T11:42:26;19.94;66.35
72277;SHT30;61204;49.980;8.358;2022-10-31T11:44:55;20.37;65.96
72277;SHT30;61204;49.980;8.358;2022-10-31T11:47:29;20.83;64.21
72277;SHT30;61204;49.980;8.358;2022-10-31T11:50:02;20.87;63.88
72277;SHT30;61204;49.980;8.358;2022-10-31T11:52:39;20.73;63.64
72277;SHT30;61204;49.980;8.358;2022-10-31T11:57:51;21.38;62.93
72277;SHT30;61204;49.980;8.358;2022-10-31T12:00:36;21.51;62.07
72277;SHT30;61204;49.980;8.358;2022-10-31T12:03:15;21.65;61.33
72277;SHT30;61204;49.980;8.358;2022-10-31T12:06:18;21.74;61.39
72277;SHT30;61204;49.980;8.358;2022-10-31T12:08:49;21.86;61.13
72277;SHT30;61204;49.980;8.358;2022-10-31T12:14:54;21.69;61.07
72277;SHT30;61204;49.980;8.358;2022-10-31T12:17:58;22.04;59.57
72277;SHT30;61204;49.980;8.358;2022-10-31T12:21:00;22.30;58.85
72277;SHT30;61204;49.980;8.358;2022-10-31T12:29:23;23.24;57.01
72277;SHT30;61204;49.980;8.358;2022-10-31T12:35:03;23.74;54.81
72277;SHT30;61204;49.980;8.358;2022-10-31T12:39:09;23.95;54.70
72277;SHT30;61204;49.980;8.358;2022-10-31T12:41:43;22.93;56.79
72277;SHT30;61204;49.980;8.358;2022-10-31T12:44:52;23.46;56.34
72277;SHT30;61204;49.980;8.358;2022-10-31T12:53:48;23.19;56.09
72277;SHT30;61204;49.980;8.358;2022-10-31T12:56:55;23.44;55.31
72277;SHT30;61204;49.980;8.358;2022-10-31T12:59:39;22.89;57.07
72277;SHT30;61204;49.980;8.358;2022-10-31T13:02:27;22.75;57.79
72277;SHT30;61204;49.980;8.358;2022-10-31T13:05:33;22.40;58.41
72277;SHT30;61204;49.980;8.358;2022-10-31T13:08:26;22.06;59.83
72277;SHT30;61204;49.980;8.358;2022-10-31T13:11:10;22.44;58.79
72277;SHT30;61204;49.980;8.358;2022-10-31T13:14:06;22.20;59.14
72277;SHT30;61204;49.980;8.358;2022-10-31T13:16:42;22.23;59.58
72277;SHT30;61204;49.980;8.358;2022-10-31T13:22:27;21.85;60.58
72277;SHT30;61204;49.980;8.358;2022-10-31T13:28:03;21.58;61.77
72277;SHT30;61204;49.980;8.358;2022-10-31T13:30:50;21.47;61.75
72277;SHT30;61204;49.980;8.358;2022-10-31T13:33:43;21.10;62.55
72277;SHT30;61204;49.980;8.358;2022-10-31T13:36:45;20.69;64.32
72277;SHT30;61204;49.980;8.358;2022-10-31T13:39:45;20.23;65.51
72277;SHT30;61204;49.980;8.358;2022-10-31T13:45:18;19.86;67.72
72277;SHT30;61204;49.980;8.358;2022-10-31T13:50:32;20.37;66.33
72277;SHT30;61204;49.980;8.358;2022-10-31T13:53:21;20.44;65.41
72277;SHT30;61204;49.980;8.358;2022-10-31T13:56:01;20.56;65.40
72277;SHT30;61204;49.980;8.358;2022-10-31T13:58:31;20.61;65.31
72277;SHT30;61204;49.980;8.358;2022-10-31T14:01:16;20.41;65.57
72277;SHT30;61204;49.980;8.358;2022-10-31T14:03:56;20.56;65.11
72277;SHT30;61204;49.980;8.358;2022-10-31T14:10:31;20.59;65.87
72277;SHT30;61204;49.980;8.358;2022-10-31T14:13:24;20.67;65.56
72277;SHT30;61204;49.980;8.358;2022-10-31T14:15:59;20.80;65.30
72277;SHT30;61204;49.980;8.358;2022-10-31T14:18:38;21.11;64.57
72277;SHT30;61204;49.980;8.358;2022-10-31T14:23:48;22.20;61.95
72277;SHT30;61204;49.980;8.358;2022-10-31T14:28:52;23.50;57.11
72277;SHT30;61204;49.980;8.358;2022-10-31T14:31:44;23.85;55.86
72277;SHT30;61204;49.980;8.358;2022-10-31T14:34:33;23.99;54.99
72277;SHT30;61204;49.980;8.358;2022-10-31T14:53:22;21.19;62.79
72277;SHT30;61204;49.980;8.358;2022-10-31T14:55:54;20.45;65.35
72277;SHT30;61204;49.980;8.358;2022-10-31T15:01:04;19.73;67.79
72277;SHT30;61204;49.980;8.358;2022-10-31T15:03:38;19.69;67.59
72277;SHT30;61204;49.980;8.358;2022-10-31T15:06:18;19.58;67.98
72277;SHT30;61204;49.980;8.358;2022-10-31T15:08:52;19.62;67.75
72277;SHT30;61204;49.980;8.358;2022-10-31T15:11:25;19.65;67.92
72277;SHT30;61204;49.980;8.358;2022-10-31T15:13:55;19.69;67.42
72277;SHT30;61204;49.980;8.358;2022-10-31T15:16:31;19.62;68.08
72277;SHT30;61204;49.980;8.358;2022-10-31T15:19:15;19.47;68.34
72277;SHT30;61204;49.980;8.358;2022-10-31T15:21:46;19.41;68.46
72277;SHT30;61204;49.980;8.358;2022-10-31T15:24:14;19.41;68.74
72277;SHT30;61204;49.980;8.358;2022-10-31T15:26:46;19.38;69.70
72277;SHT30;61204;49.980;8.358;2022-10-31T15:29:17;19.38;69.98
72277;SHT30;61204;49.980;8.358;2022-10-31T15:32:01;19.44;69.55
72277;SHT30;61204;49.980;8.358;2022-10-31T15:34:43;19.25;69.18
72277;SHT30;61204;49.980;8.358;2022-10-31T15:37:21;19.08;70.14
72277;SHT30;61204;49.980;8.358;2022-10-31T15:39:50;19.08;70.35
72277;SHT30;61204;49.980;8.358;2022-10-31T15:42:30;19.21;69.76
72277;SHT30;61204;49.980;8.358;2022-10-31T15:45:25;18.97;71.02
72277;SHT30;61204;49.980;8.358;2022-10-31T15:48:02;18.51;72.09
72277;SHT30;61204;49.980;8.358;2022-10-31T15:50:41;18.17;73.41
72277;SHT30;61204;49.980;8.358;2022-10-31T15:53:42;17.90;74.96
72277;SHT30;61204;49.980;8.358;2022-10-31T15:56:19;17.72;75.48
72277;SHT30;61204;49.980;8.358;2022-10-31T15:58:50;17.69;75.22
72277;SHT30;61204;49.980;8.358;2022-10-31T16:01:23;17.62;75.47
72277;SHT30;61204;49.980;8.358;2022-10-31T16:04:22;17.48;76.12
72277;SHT30;61204;49.980;8.358;2022-10-31T16:07:15;17.42;76.32
72277;SHT30;61204;49.980;8.358;2022-10-31T16:10:00;17.35;76.67
72277;SHT30;61204;49.980;8.358;2022-10-31T16:12:46;17.24;77.05
72277;SHT30;61204;49.980;8.358;2022-10-31T16:15:17;17.16;77.34
72277;SHT30;61204;49.980;8.358;2022-10-31T16:17:49;17.18;77.27
72277;SHT30;61204;49.980;8.358;2022-10-31T16:20:26;17.14;77.56
72277;SHT30;61204;49.980;8.358;2022-10-31T16:22:56;17.03;78.00
72277;SHT30;61204;49.980;8.358;2022-10-31T16:25:34;16.97;78.18
72277;SHT30;61204;49.980;8.358;2022-10-31T16:28:18;16.93;77.95
72277;SHT30;61204;49.980;8.358;2022-10-31T16:30:53;16.90;77.91
72277;SHT30;61204;49.980;8.358;2022-10-31T16:33:30;16.89;78.04
72277;SHT30;61204;49.980;8.358;2022-10-31T16:36:35;16.79;78.67
72277;SHT30;61204;49.980;8.358;2022-10-31T16:39:04;16.71;79.01
72277;SHT30;61204;49.980;8.358;2022-10-31T16:41:40;16.59;79.32
72277;SHT30;61204;49.980;8.358;2022-10-31T16:44:20;16.48;79.70
72277;SHT30;61204;49.980;8.358;2022-10-31T16:47:08;16.42;80.06
72277;SHT30;61204;49.980;8.358;2022-10-31T16:49:34;16.41;80.60
72277;SHT30;61204;49.980;8.358;2022-10-31T16:52:00;16.29;80.49
72277;SHT30;61204;49.980;8.358;2022-10-31T16:54:25;16.20;81.22
72277;SHT30;61204;49.980;8.358;2022-10-31T16:56:51;16.14;81.34
72277;SHT30;61204;49.980;8.358;2022-10-31T16:59:16;15.97;82.11
72277;SHT30;61204;49.980;8.358;2022-10-31T17:01:48;15.83;82.48
72277;SHT30;61204;49.980;8.358;2022-10-31T17:04:14;15.70;82.72
72277;SHT30;61204;49.980;8.358;2022-10-31T17:06:41;15.69;82.91
72277;SHT30;61204;49.980;8.358;2022-10-31T17:09:08;15.74;82.72
72277;SHT30;61204;49.980;8.358;2022-10-31T17:11:34;15.62;82.62
72277;SHT30;61204;49.980;8.358;2022-10-31T17:14:01;15.49;83.55
72277;SHT30;61204;49.980;8.358;2022-10-31T17:16:29;15.44;84.37
72277;SHT30;61204;49.980;8.358;2022-10-31T17:18:54;15.42;84.47
72277;SHT30;61204;49.980;8.358;2022-10-31T17:21:22;15.37;84.55
72277;SHT30;61204;49.980;8.358;2022-10-31T17:23:49;15.31;84.93
72277;SHT30;61204;49.980;8.358;2022-10-31T17:26:15;15.18;84.67
72277;SHT30;61204;49.980;8.358;2022-10-31T17:28:41;15.08;84.87
72277;SHT30;61204;49.980;8.358;2022-10-31T17:31:20;14.99;85.14
72277;SHT30;61204;49.980;8.358;2022-10-31T17:33:55;14.82;85.77
72277;SHT30;61204;49.980;8.358;2022-10-31T17:36:22;14.75;86.73
72277;SHT30;61204;49.980;8.358;2022-10-31T17:38:48;14.63;87.50
72277;SHT30;61204;49.980;8.358;2022-10-31T17:41:13;14.49;87.65
72277;SHT30;61204;49.980;8.358;2022-10-31T17:43:40;14.38;88.63
72277;SHT30;61204;49.980;8.358;2022-10-31T17:46:06;14.31;89.04
72277;SHT30;61204;49.980;8.358;2022-10-31T17:48:34;14.22;88.59
72277;SHT30;61204;49.980;8.358;2022-10-31T17:51:03;14.13;88.79
72277;SHT30;61204;49.980;8.358;2022-10-31T17:53:33;14.04;88.71
72277;SHT30;61204;49.980;8.358;2022-10-31T17:56:06;14.00;88.58
72277;SHT30;61204;49.980;8.358;2022-10-31T17:58:35;13.96;89.14
72277;SHT30;61204;49.980;8.358;2022-10-31T18:01:11;13.89;89.46
72277;SHT30;61204;49.980;8.358;2022-10-31T18:03:39;13.83;89.47
72277;SHT30;61204;49.980;8.358;2022-10-31T18:06:06;13.75;89.84
72277;SHT30;61204;49.980;8.358;2022-10-31T18:08:35;13.66;89.99
72277;SHT30;61204;49.980;8.358;2022-10-31T18:11:12;13.62;90.22
72277;SHT30;61204;49.980;8.358;2022-10-31T18:13:40;13.55;90.49
72277;SHT30;61204;49.980;8.358;2022-10-31T18:16:12;13.51;90.60
72277;SHT30;61204;49.980;8.358;2022-10-31T18:18:40;13.46;90.81
72277;SHT30;61204;49.980;8.358;2022-10-31T18:21:06;13.42;91.74